createdAt,value
2019-02-21T00:00:26.633Z,55.02
2019-02-21T00:02:53.538Z,54.99
2019-02-21T00:05:20.364Z,55.11
2019-02-21T00:07:47.027Z,56.29
2019-02-21T00:10:13.644Z,56.69
2019-02-21T00:12:40.806Z,57.06
2019-02-21T00:15:07.714Z,56.21
2019-02-21T00:17:34.670Z,55.64
2019-02-21T00:20:01.836Z,55.35
2019-02-21T00:22:29.747Z,56.08
2019-02-21T00:24:56.683Z,56.02
2019-02-21T00:27:24.048Z,55.94
2019-02-21T00:29:50.765Z,55.55
2019-02-21T00:32:17.722Z,55.47
2019-02-21T00:34:46.136Z,55.58
2019-02-21T00:37:12.731Z,55.05
2019-02-21T00:39:39.361Z,54.96
2019-02-21T00:42:05.966Z,54.66
2019-02-21T00:44:32.958Z,54.70
2019-02-21T00:46:59.801Z,55.04
2019-02-21T00:49:26.426Z,55.20
2019-02-21T00:51:53.318Z,55.98
2019-02-21T00:54:20.086Z,56.35
2019-02-21T00:56:47.026Z,56.41
2019-02-21T00:59:13.671Z,56.79
2019-02-21T01:01:41.140Z,56.75
2019-02-21T01:04:07.782Z,56.17
2019-02-21T01:06:34.501Z,56.28
2019-02-21T01:09:01.604Z,56.81
2019-02-21T01:11:28.213Z,55.90
2019-02-21T01:13:55.320Z,56.36
2019-02-21T01:16:22.410Z,56.31
2019-02-21T01:18:49.350Z,56.61
2019-02-21T01:21:15.958Z,56.68
2019-02-21T01:23:43.045Z,56.68
2019-02-21T01:26:09.805Z,55.87
2019-02-21T01:28:36.473Z,55.97
2019-02-21T01:31:03.137Z,56.45
2019-02-21T01:33:30.497Z,56.31
2019-02-21T01:35:57.142Z,56.12
2019-02-21T01:38:23.769Z,56.59
2019-02-21T01:40:51.547Z,57.07
2019-02-21T01:43:18.392Z,56.92
2019-02-21T01:45:44.964Z,57.10
2019-02-21T01:48:13.161Z,57.32
2019-02-21T01:50:40.019Z,57.39
2019-02-21T01:53:06.934Z,57.21
2019-02-21T01:55:33.628Z,57.39
2019-02-21T01:58:00.288Z,57.53
2019-02-21T02:00:27.375Z,57.71
2019-02-21T02:02:54.267Z,57.40
2019-02-21T02:05:20.885Z,57.02
2019-02-21T02:07:47.545Z,57.02
2019-02-21T02:10:14.186Z,56.77
2019-02-21T02:12:40.771Z,57.00
2019-02-21T02:15:07.466Z,57.24
2019-02-21T02:17:34.134Z,57.15
2019-02-21T02:20:01.013Z,57.12
2019-02-21T02:22:27.753Z,57.58
2019-02-21T02:24:54.471Z,58.00
2019-02-21T02:27:21.433Z,57.98
2019-02-21T02:29:48.348Z,58.25
2019-02-21T02:32:15.048Z,58.20
2019-02-21T02:34:41.650Z,58.12
2019-02-21T02:37:08.515Z,58.33
2019-02-21T02:39:35.168Z,58.33
2019-02-21T02:42:01.794Z,58.38
2019-02-21T02:44:28.570Z,58.25
2019-02-21T02:49:29.049Z,58.15
2019-02-21T02:51:56.006Z,58.05
2019-02-21T02:54:22.917Z,58.25
2019-02-21T02:56:50.239Z,58.31
2019-02-21T02:59:17.759Z,58.21
2019-02-21T03:01:45.701Z,58.62
2019-02-21T03:04:12.723Z,59.07
2019-02-21T03:06:39.386Z,59.33
2019-02-21T03:09:06.176Z,59.13
2019-02-21T03:11:32.883Z,57.97
2019-02-21T03:13:59.835Z,57.70
2019-02-21T03:16:27.107Z,57.86
2019-02-21T03:18:53.759Z,57.90
2019-02-21T03:21:21.192Z,57.88
2019-02-21T03:23:48.190Z,57.95
2019-02-21T03:26:16.303Z,58.24
2019-02-21T03:28:43.027Z,58.21
2019-02-21T03:31:10.074Z,58.17
2019-02-21T03:33:36.745Z,58.63
2019-02-21T03:36:03.595Z,58.69
2019-02-21T03:38:34.849Z,58.76
2019-02-21T03:40:59.431Z,58.63
2019-02-21T03:43:26.114Z,58.34
2019-02-21T03:45:53.929Z,58.15
2019-02-21T03:48:20.793Z,58.48
2019-02-21T03:50:47.726Z,58.64
2019-02-21T03:53:16.157Z,58.58
2019-02-21T03:55:42.872Z,58.48
2019-02-21T03:58:09.839Z,58.57
2019-02-21T04:00:36.467Z,58.73
2019-02-21T04:03:03.858Z,58.62
2019-02-21T04:05:30.549Z,58.26
2019-02-21T04:07:57.265Z,58.35
2019-02-21T04:10:24.402Z,58.68
2019-02-21T04:12:51.382Z,58.60
2019-02-21T04:15:18.375Z,58.13
2019-02-21T04:17:46.747Z,57.68
2019-02-21T04:20:13.460Z,57.45
2019-02-21T04:22:40.459Z,57.40
2019-02-21T04:25:08.142Z,57.49
2019-02-21T04:27:34.735Z,57.34
2019-02-21T04:30:01.805Z,57.26
2019-02-21T04:32:28.715Z,57.20
2019-02-21T04:34:55.665Z,57.08
2019-02-21T04:37:22.695Z,57.31
2019-02-21T04:39:49.615Z,57.35
2019-02-21T04:42:16.923Z,57.92
2019-02-21T04:44:43.559Z,58.04
2019-02-21T04:47:10.801Z,58.33
2019-02-21T04:49:37.634Z,58.15
2019-02-21T04:52:05.195Z,57.91
2019-02-21T04:54:31.737Z,57.77
2019-02-21T04:56:58.960Z,57.69
2019-02-21T04:59:26.101Z,57.78
2019-02-21T05:01:53.077Z,57.77
2019-02-21T05:04:20.001Z,57.61
2019-02-21T05:06:47.312Z,58.22
2019-02-21T05:09:14.018Z,58.21
2019-02-21T05:11:40.962Z,58.46
2019-02-21T05:14:07.609Z,58.63
2019-02-21T05:16:34.231Z,58.32
2019-02-21T05:19:00.993Z,57.95
2019-02-21T05:21:27.657Z,58.24
2019-02-21T05:23:54.331Z,58.19
2019-02-21T05:26:22.714Z,58.46
2019-02-21T05:28:49.330Z,58.44
2019-02-21T05:31:17.534Z,58.40
2019-02-21T05:33:44.265Z,58.15
2019-02-21T05:36:10.829Z,58.20
2019-02-21T05:38:37.460Z,58.22
2019-02-21T05:41:04.600Z,58.21
2019-02-21T05:43:31.752Z,58.23
2019-02-21T05:45:58.405Z,58.31
2019-02-21T05:48:25.776Z,58.52
2019-02-21T05:50:52.498Z,58.55
2019-02-21T05:53:19.676Z,58.56
2019-02-21T05:55:47.899Z,58.00
2019-02-21T05:58:14.503Z,57.84
2019-02-21T06:00:41.220Z,58.12
2019-02-21T06:03:07.895Z,58.20
2019-02-21T06:05:34.693Z,58.54
2019-02-21T06:08:01.304Z,58.87
2019-02-21T06:10:27.889Z,58.74
2019-02-21T06:12:54.690Z,58.89
2019-02-21T06:15:21.326Z,59.14
2019-02-21T06:17:48.386Z,58.28
2019-02-21T06:20:17.706Z,58.01
2019-02-21T06:22:43.377Z,57.70
2019-02-21T06:25:10.006Z,57.40
2019-02-21T06:27:38.119Z,57.53
2019-02-21T06:30:06.165Z,57.53
2019-02-21T06:32:32.791Z,57.24
2019-02-21T06:35:02.410Z,57.05
2019-02-21T06:37:28.736Z,56.78
2019-02-21T06:39:55.575Z,56.92
2019-02-21T06:42:23.284Z,56.85
2019-02-21T06:44:50.929Z,56.42
2019-02-21T06:47:21.257Z,56.84
2019-02-21T06:49:50.767Z,57.45
2019-02-21T06:52:18.711Z,57.93
2019-02-21T06:54:45.558Z,58.04
2019-02-21T06:57:12.735Z,58.24
2019-02-21T06:59:45.670Z,57.83
2019-02-21T07:02:13.615Z,57.37
2019-02-21T07:04:43.063Z,57.42
2019-02-21T07:07:12.151Z,57.14
2019-02-21T07:09:42.854Z,57.26
2019-02-21T07:12:13.505Z,57.50
2019-02-21T07:14:40.125Z,57.30
2019-02-21T07:17:08.652Z,57.10
2019-02-21T07:19:40.379Z,57.21
2019-02-21T07:22:07.798Z,57.11
2019-02-21T07:24:38.316Z,56.89
2019-02-21T07:27:10.204Z,56.27
2019-02-21T07:29:38.826Z,56.20
2019-02-21T07:32:06.944Z,56.32
2019-02-21T07:34:34.861Z,56.21
2019-02-21T07:37:17.738Z,55.97
2019-02-21T07:39:36.305Z,55.52
2019-02-21T07:42:07.292Z,55.24
2019-02-21T07:44:34.146Z,54.89
2019-02-21T07:47:01.372Z,54.72
2019-02-21T07:49:32.104Z,54.67
2019-02-21T07:52:01.575Z,54.07
2019-02-21T07:54:31.493Z,53.77
2019-02-21T07:57:01.976Z,53.72
2019-02-21T07:59:29.454Z,53.35
2019-02-21T08:01:56.384Z,53.50
2019-02-21T08:04:23.533Z,53.20
2019-02-21T08:06:50.433Z,53.03
2019-02-21T08:09:18.936Z,52.98
2019-02-21T08:11:45.638Z,52.66
2019-02-21T08:14:12.539Z,52.46
2019-02-21T08:16:39.420Z,51.68
2019-02-21T08:19:06.051Z,51.54
2019-02-21T08:21:32.666Z,51.56
2019-02-21T08:24:00.005Z,51.45
2019-02-21T08:26:26.731Z,50.44
2019-02-21T08:28:53.418Z,50.75
2019-02-21T08:31:20.297Z,50.97
2019-02-21T08:33:57.650Z,50.07
2019-02-21T08:36:15.262Z,49.72
2019-02-21T08:38:42.018Z,49.29
2019-02-21T08:41:08.982Z,49.48
2019-02-21T08:43:37.327Z,49.32
2019-02-21T08:46:03.979Z,48.04
2019-02-21T08:48:30.585Z,48.07
2019-02-21T08:50:57.578Z,47.09
2019-02-21T08:53:24.331Z,47.48
2019-02-21T08:55:51.236Z,46.38
2019-02-21T08:58:18.141Z,46.93
2019-02-21T09:00:44.780Z,46.93
2019-02-21T09:03:11.418Z,46.29
2019-02-21T09:05:38.622Z,45.39
2019-02-21T09:08:05.626Z,45.79
2019-02-21T09:10:32.746Z,46.63
2019-02-21T09:12:59.391Z,45.96
2019-02-21T09:15:26.267Z,45.52
2019-02-21T09:17:54.196Z,45.31
2019-02-21T09:20:21.414Z,44.69
2019-02-21T09:22:48.108Z,44.50
2019-02-21T09:25:15.476Z,43.38
2019-02-21T09:27:42.170Z,43.58
2019-02-21T09:30:08.915Z,42.79
2019-02-21T09:32:35.806Z,43.06
2019-02-21T09:35:02.659Z,43.49
2019-02-21T09:37:29.346Z,43.25
2019-02-21T09:39:56.292Z,43.34
2019-02-21T09:42:23.011Z,43.39
2019-02-21T09:44:51.069Z,42.88
2019-02-21T09:47:17.729Z,43.03
2019-02-21T09:49:44.352Z,43.10
2019-02-21T09:52:10.979Z,42.64
2019-02-21T09:54:37.917Z,41.63
2019-02-21T09:57:12.726Z,42.48
2019-02-21T09:59:33.204Z,42.58
2019-02-21T10:01:59.883Z,42.22
2019-02-21T10:04:32.188Z,40.48
2019-02-21T10:06:54.941Z,40.96
2019-02-21T10:09:21.699Z,41.04
2019-02-21T10:11:48.508Z,41.18
2019-02-21T10:14:15.120Z,40.22
2019-02-21T10:16:41.686Z,40.03
2019-02-21T10:19:08.296Z,40.54
2019-02-21T10:21:35.494Z,40.36
2019-02-21T10:24:02.459Z,39.57
2019-02-21T10:26:29.560Z,40.40
2019-02-21T10:28:56.623Z,40.37
2019-02-21T10:31:23.762Z,40.37
2019-02-21T10:33:52.054Z,40.38
2019-02-21T10:36:18.656Z,39.34
2019-02-21T10:38:45.477Z,39.68
2019-02-21T10:41:12.148Z,39.27
2019-02-21T10:43:39.148Z,40.08
2019-02-21T10:46:05.751Z,39.07
2019-02-21T10:48:32.671Z,39.11
2019-02-21T10:51:01.574Z,38.68
2019-02-21T10:53:28.572Z,39.09
2019-02-21T10:55:55.821Z,37.96
2019-02-21T10:58:23.152Z,38.13
2019-02-21T11:00:49.895Z,37.10
2019-02-21T11:03:17.087Z,38.09
2019-02-21T11:05:45.284Z,38.05
2019-02-21T11:08:14.456Z,37.46
2019-02-21T11:10:45.696Z,38.02
2019-02-21T11:13:17.290Z,37.28
2019-02-21T11:15:44.952Z,36.99
2019-02-21T11:18:12.671Z,37.57
2019-02-21T11:20:40.547Z,36.51
2019-02-21T11:23:08.725Z,36.95
2019-02-21T11:25:35.985Z,36.06
2019-02-21T11:28:05.649Z,36.97
2019-02-21T11:30:35.895Z,36.40
2019-02-21T11:33:04.245Z,37.02
2019-02-21T11:35:31.669Z,35.88
2019-02-21T11:37:59.442Z,36.70
2019-02-21T11:40:28.309Z,36.11
2019-02-21T11:42:57.920Z,34.90
2019-02-21T11:45:27.783Z,35.45
2019-02-21T11:47:57.139Z,35.16
2019-02-21T11:50:29.203Z,34.77
2019-02-21T11:52:56.936Z,34.94
2019-02-21T11:55:25.004Z,34.79
2019-02-21T11:57:53.030Z,34.60
2019-02-21T12:00:25.189Z,34.33
2019-02-21T12:02:53.381Z,33.72
2019-02-21T12:05:30.590Z,32.74
2019-02-21T12:07:48.332Z,32.80
2019-02-21T12:10:14.966Z,31.28
2019-02-21T12:12:41.853Z,32.32
2019-02-21T12:15:09.024Z,32.08
2019-02-21T12:17:36.002Z,32.29
2019-02-21T12:20:03.196Z,32.59
2019-02-21T12:22:30.101Z,33.53
2019-02-21T12:24:57.315Z,31.86
2019-02-21T12:27:24.221Z,34.04
2019-02-21T12:29:51.154Z,32.52
2019-02-21T12:32:17.881Z,33.38
2019-02-21T12:34:44.446Z,32.68
2019-02-21T12:37:11.442Z,32.51
2019-02-21T12:39:38.249Z,31.97
2019-02-21T12:42:04.864Z,31.07
2019-02-21T12:44:31.610Z,31.09
2019-02-21T12:46:58.529Z,32.13
2019-02-21T12:49:25.655Z,31.62
2019-02-21T12:51:54.280Z,31.51
2019-02-21T12:54:20.895Z,31.93
2019-02-21T12:56:47.562Z,31.34
2019-02-21T12:59:15.443Z,31.26
2019-02-21T13:01:42.108Z,31.36
2019-02-21T13:04:09.003Z,32.06
2019-02-21T13:06:35.652Z,30.24
2019-02-21T13:09:02.602Z,30.30
2019-02-21T13:11:29.297Z,31.70
2019-02-21T13:13:55.935Z,31.67
2019-02-21T13:16:24.108Z,31.32
2019-02-21T13:18:50.787Z,30.07
2019-02-21T13:21:17.417Z,30.34
2019-02-21T13:23:44.059Z,29.45
2019-02-21T13:26:11.818Z,30.34
2019-02-21T13:28:38.943Z,29.38
2019-02-21T13:31:05.985Z,29.87
2019-02-21T13:33:33.104Z,30.31
2019-02-21T13:36:00.096Z,30.44
2019-02-21T13:38:27.315Z,30.12
2019-02-21T13:40:53.938Z,29.09
2019-02-21T13:43:20.556Z,29.40
2019-02-21T13:45:47.322Z,29.75
2019-02-21T13:48:14.258Z,29.63
2019-02-21T13:50:41.339Z,30.40
2019-02-21T13:53:08.267Z,30.52
2019-02-21T13:55:35.432Z,30.30
2019-02-21T13:58:02.531Z,30.49
2019-02-21T14:00:29.413Z,30.58
2019-02-21T14:02:58.055Z,30.31
2019-02-21T14:05:24.694Z,30.64
2019-02-21T14:07:51.350Z,29.99
2019-02-21T14:10:18.296Z,30.15
2019-02-21T14:12:45.615Z,30.17
2019-02-21T14:15:12.326Z,29.63
2019-02-21T14:17:39.229Z,29.17
2019-02-21T14:20:06.161Z,29.67
2019-02-21T14:22:32.858Z,29.63
2019-02-21T14:24:59.481Z,29.75
2019-02-21T14:27:26.311Z,30.17
2019-02-21T14:29:52.929Z,30.43
2019-02-21T14:32:20.139Z,29.84
2019-02-21T14:34:46.698Z,30.57
2019-02-21T14:37:13.361Z,30.23
2019-02-21T14:39:40.636Z,30.23
2019-02-21T14:42:07.810Z,30.46
2019-02-21T14:44:34.662Z,30.11
2019-02-21T14:47:07.999Z,30.92
2019-02-21T14:49:35.030Z,31.15
2019-02-21T14:52:02.986Z,31.17
2019-02-21T14:54:30.265Z,31.31
2019-02-21T14:56:56.854Z,31.64
2019-02-21T14:59:23.601Z,31.65
2019-02-21T15:01:50.193Z,30.57
2019-02-21T15:04:16.888Z,30.59
2019-02-21T15:06:43.846Z,30.79
2019-02-21T15:09:10.967Z,31.41
2019-02-21T15:11:37.901Z,31.34
2019-02-21T15:14:04.960Z,31.07
2019-02-21T15:16:33.028Z,31.53
2019-02-21T15:18:59.812Z,31.71
2019-02-21T15:21:27.517Z,31.38
2019-02-21T15:23:54.435Z,31.90
2019-02-21T15:26:23.266Z,32.30
2019-02-21T15:28:51.892Z,32.46
2019-02-21T15:31:19.542Z,32.60
2019-02-21T15:33:51.010Z,32.32
2019-02-21T15:36:18.495Z,32.37
2019-02-21T15:38:49.455Z,32.06
2019-02-21T15:41:17.420Z,32.33
2019-02-21T15:43:50.156Z,32.54
2019-02-21T15:46:17.513Z,32.41
2019-02-21T15:48:45.249Z,32.76
2019-02-21T15:51:14.007Z,32.57
2019-02-21T15:53:41.705Z,32.76
2019-02-21T15:56:11.316Z,33.05
2019-02-21T15:58:38.670Z,33.02
2019-02-21T16:01:09.378Z,32.90
2019-02-21T16:03:35.735Z,33.28
2019-02-21T16:06:03.648Z,33.47
2019-02-21T16:08:30.307Z,33.39
2019-02-21T16:10:56.954Z,33.50
2019-02-21T16:13:23.926Z,33.83
2019-02-21T16:15:51.001Z,34.23
2019-02-21T16:18:17.931Z,34.25
2019-02-21T16:20:44.851Z,34.58
2019-02-21T16:23:11.621Z,34.89
2019-02-21T16:25:38.261Z,35.12
2019-02-21T16:28:05.161Z,35.21
2019-02-21T16:30:31.776Z,35.55
2019-02-21T16:32:58.739Z,35.99
2019-02-21T16:35:27.165Z,36.44
2019-02-21T16:37:53.896Z,36.90
2019-02-21T16:40:21.138Z,37.35
2019-02-21T16:42:47.906Z,37.69
2019-02-21T16:45:14.826Z,37.94
2019-02-21T16:47:42.007Z,38.28
2019-02-21T16:50:08.746Z,38.20
2019-02-21T16:52:36.844Z,38.20
2019-02-21T16:55:04.389Z,38.48
2019-02-21T16:57:31.155Z,38.69
2019-02-21T16:59:57.727Z,38.90
2019-02-21T17:02:24.494Z,38.93
2019-02-21T17:04:51.197Z,39.35
2019-02-21T17:07:20.178Z,39.84
2019-02-21T17:09:47.352Z,39.98
2019-02-21T17:12:14.523Z,40.29
2019-02-21T17:14:41.290Z,40.31
2019-02-21T17:17:08.228Z,40.27
2019-02-21T17:19:34.830Z,40.47
2019-02-21T17:22:01.524Z,40.74
2019-02-21T17:24:28.383Z,41.06
2019-02-21T17:26:55.055Z,41.47
2019-02-21T17:29:21.929Z,41.62
2019-02-21T17:31:48.829Z,41.52
2019-02-21T17:34:15.722Z,41.26
2019-02-21T17:36:42.987Z,40.97
2019-02-21T17:39:09.857Z,40.92
2019-02-21T17:41:37.872Z,40.94
2019-02-21T17:44:05.084Z,41.23
2019-02-21T17:46:31.889Z,41.49
2019-02-21T17:48:58.821Z,41.53
2019-02-21T17:51:25.440Z,41.50
2019-02-21T17:53:52.861Z,41.81
2019-02-21T17:56:19.873Z,41.99
2019-02-21T17:58:47.046Z,41.80
2019-02-21T18:01:13.965Z,42.03
2019-02-21T18:03:41.211Z,42.46
2019-02-21T18:06:07.991Z,43.01
2019-02-21T18:08:35.292Z,42.86
2019-02-21T18:11:02.213Z,42.74
2019-02-21T18:13:30.082Z,42.63
2019-02-21T18:15:56.697Z,42.63
2019-02-21T18:18:23.523Z,42.98
2019-02-21T18:20:50.396Z,43.06
2019-02-21T18:23:17.481Z,42.79
2019-02-21T18:25:44.416Z,43.07
2019-02-21T18:28:11.326Z,42.83
2019-02-21T18:30:38.346Z,42.65
2019-02-21T18:33:05.803Z,43.22
2019-02-21T18:35:33.594Z,44.54
2019-02-21T18:38:00.413Z,44.63
2019-02-21T18:40:28.824Z,44.91
2019-02-21T18:42:55.466Z,45.37
2019-02-21T18:45:22.190Z,46.58
2019-02-21T18:47:48.848Z,46.36
2019-02-21T18:50:15.881Z,46.04
2019-02-21T18:52:42.876Z,45.48
2019-02-21T18:55:11.666Z,45.12
2019-02-21T18:57:38.610Z,44.57
2019-02-21T19:00:06.197Z,44.79
2019-02-21T19:02:32.863Z,45.14
2019-02-21T19:04:59.761Z,45.51
2019-02-21T19:07:26.381Z,45.91
2019-02-21T19:09:53.024Z,46.40
2019-02-21T19:12:20.163Z,46.92
2019-02-21T19:14:47.102Z,46.32
2019-02-21T19:17:14.174Z,45.46
2019-02-21T19:19:41.114Z,45.61
2019-02-21T19:22:08.236Z,45.08
2019-02-21T19:24:37.048Z,45.13
2019-02-21T19:27:04.086Z,45.16
2019-02-21T19:29:30.762Z,45.48
2019-02-21T19:31:57.538Z,45.06
2019-02-21T19:34:24.558Z,45.36
2019-02-21T19:36:51.351Z,45.44
2019-02-21T19:39:18.503Z,45.80
2019-02-21T19:41:45.664Z,46.22
2019-02-21T19:44:12.648Z,46.62
2019-02-21T19:46:39.347Z,46.11
2019-02-21T19:49:06.722Z,46.30
2019-02-21T19:51:33.519Z,46.61
2019-02-21T19:54:00.397Z,47.12
2019-02-21T19:56:27.029Z,47.71
2019-02-21T19:58:53.897Z,47.91
2019-02-21T20:01:20.834Z,47.84
2019-02-21T20:03:47.727Z,47.58
2019-02-21T20:06:14.609Z,47.42
2019-02-21T20:08:41.322Z,47.68
2019-02-21T20:11:07.960Z,47.68
2019-02-21T20:13:34.618Z,47.59
2019-02-21T20:16:01.650Z,47.50
2019-02-21T20:18:28.309Z,48.37
2019-02-21T20:20:57.236Z,48.49
2019-02-21T20:23:24.212Z,48.63
2019-02-21T20:25:51.155Z,48.55
2019-02-21T20:28:17.760Z,48.34
2019-02-21T20:30:46.826Z,48.29
2019-02-21T20:33:14.070Z,48.12
2019-02-21T20:35:40.845Z,47.91
2019-02-21T20:38:07.578Z,47.74
2019-02-21T20:40:34.648Z,47.79
2019-02-21T20:43:01.353Z,48.01
2019-02-21T20:45:28.025Z,48.42
2019-02-21T20:47:54.931Z,49.06
2019-02-21T20:50:21.596Z,48.98
2019-02-21T20:52:48.315Z,48.87
2019-02-21T20:55:15.251Z,49.25
2019-02-21T20:57:42.555Z,49.75
2019-02-21T21:00:09.894Z,50.13
2019-02-21T21:02:36.531Z,50.04
2019-02-21T21:05:03.333Z,49.95
2019-02-21T21:07:30.285Z,50.01
2019-02-21T21:09:57.453Z,50.18
2019-02-21T21:12:24.521Z,50.44
2019-02-21T21:14:51.506Z,50.79
2019-02-21T21:17:18.404Z,50.85
2019-02-21T21:19:45.359Z,50.77
2019-02-21T21:22:11.954Z,50.28
2019-02-21T21:24:40.133Z,50.37
2019-02-21T21:27:06.799Z,50.49
2019-02-21T21:29:33.698Z,50.60
2019-02-21T21:32:00.685Z,50.27
2019-02-21T21:34:27.875Z,50.39
2019-02-21T21:36:54.802Z,50.52
2019-02-21T21:39:21.849Z,50.17
2019-02-21T21:41:48.780Z,49.99
2019-02-21T21:44:15.422Z,49.98
2019-02-21T21:46:42.071Z,50.64
2019-02-21T21:49:10.144Z,51.21
2019-02-21T21:51:36.948Z,51.41
2019-02-21T21:54:03.950Z,50.99
2019-02-21T21:56:31.033Z,50.61
2019-02-21T21:58:58.281Z,50.47
2019-02-21T22:01:24.964Z,50.57
2019-02-21T22:03:51.578Z,51.04
2019-02-21T22:06:18.680Z,51.50
2019-02-21T22:08:45.309Z,51.81
2019-02-21T22:11:12.402Z,51.66
2019-02-21T22:13:40.449Z,51.85
2019-02-21T22:16:07.115Z,52.61
2019-02-21T22:18:33.736Z,53.55
2019-02-21T22:21:00.366Z,53.06
2019-02-21T22:23:27.231Z,53.03
2019-02-21T22:25:53.886Z,52.30
2019-02-21T22:28:20.526Z,51.92
2019-02-21T22:30:48.056Z,51.37
2019-02-21T22:33:14.671Z,51.61
2019-02-21T22:35:41.439Z,51.30
2019-02-21T22:38:08.372Z,51.26
2019-02-21T22:40:35.022Z,51.31
2019-02-21T22:43:01.667Z,52.34
2019-02-21T22:45:29.201Z,52.43
2019-02-21T22:47:55.800Z,52.52
2019-02-21T22:50:23.049Z,52.44
2019-02-21T22:52:49.702Z,52.43
2019-02-21T22:55:16.947Z,52.54
2019-02-21T22:57:43.969Z,51.99
2019-02-21T23:00:11.057Z,52.31
2019-02-21T23:02:37.686Z,53.08
2019-02-21T23:05:04.366Z,53.38
2019-02-21T23:07:30.983Z,53.38
2019-02-21T23:09:57.940Z,52.74
2019-02-21T23:12:24.858Z,53.05
2019-02-21T23:14:52.023Z,53.32
2019-02-21T23:17:19.190Z,52.78
2019-02-21T23:19:45.948Z,52.49
2019-02-21T23:22:12.909Z,52.72
2019-02-21T23:24:41.304Z,52.78
2019-02-21T23:27:07.956Z,52.41
2019-02-21T23:29:34.832Z,51.92
2019-02-21T23:32:03.315Z,52.12
2019-02-21T23:34:30.145Z,52.68
2019-02-21T23:36:57.005Z,52.83
2019-02-21T23:39:23.617Z,52.33
2019-02-21T23:41:50.566Z,52.83
2019-02-21T23:44:17.426Z,53.22
2019-02-21T23:46:45.391Z,53.51
2019-02-21T23:49:13.905Z,53.69
2019-02-21T23:51:41.476Z,54.14
2019-02-21T23:54:08.212Z,54.06
2019-02-21T23:56:34.834Z,54.57
2019-02-21T23:59:01.510Z,54.80
